Strona główna
METAR-TAF:

METAR-TAF

Lotnisko :

Port lotniczy Kuressaare

Kuressaare, Estonia

Szerokość geograficzna: 58-13-48N, Długość geograficzna: 022-30-34E, wysokość: 4 m

Aktualna obserwacja pogody

Raport powstał 40 minut temu, godzina 19:50 UTC
Wiatr 3 kt od północ
Temperatura 1°C
Wilgotność 80%
Ciśnienie 1031 hPa
Widzialność 10 km lub więcej
Zachmurzenie całkowite na wysokości 2300 ft

METAR: EEKE 201950Z AUTO 35003KT 9999NDV OVC023 01/M02 Q1031

czas: 22:30 (20:30 UTC)

Prognoza

Raport powstał 5 godziny i 30 minut temu, godzina 15:00 UTC
Prognoza ważna od 20 godzina 16 UTC do 20 godzina 22 UTC
Wiatr 2 kt z kierunków zmiennych
Widzialność 10 km lub więcej
Zachmurzenie całkowite na wysokości 2000 ft
Prawdopodobieństwo 40% :
Przejściowo
od 20 godzina 17 UTC do 20 godzina 22 UTC
Przerywane chmury na wysokości 1000 ft
Zachmurzenie całkowite na wysokości 2000 ft

TAF: EEKE 201500Z 2016/2022 VRB02KT 9999 OVC020 PROB40 TEMPO 2017/2022 BKN010 OVC020

Obserwacja i prognoza pogody dla ponad 4000 lotnisk (raport METAR i TAF).

Dostępne stacje oznaczono żółtymi i czerwonymi punktami na mapie.

Najedź kursorem aby zobaczyć nazwę stacji.

Kliknij aby zobaczyć obserwacje i prognozy pogody.

Aby zmienić mapę: kliknij na zielony przycisk z czarnym krzyżykiem, aby powiększyć; na zielony przycisk z myślnikiem, aby pomniejszyć; na zielone strzałki, aby przejść do map sąsiednich.


METAR-TAF: